createdAt,value
2018-03-24T00:00:38.319Z,36.42
2018-03-24T00:03:05.821Z,39.85
2018-03-24T00:05:33.331Z,38.50
2018-03-24T00:08:00.861Z,33.50
2018-03-24T00:10:29.127Z,31.42
2018-03-24T00:12:57.424Z,31.55
2018-03-24T00:15:25.678Z,40.75
2018-03-24T00:17:53.954Z,36.58
2018-03-24T00:20:22.220Z,35.13
2018-03-24T00:22:50.495Z,35.30
2018-03-24T00:25:19.500Z,37.10
2018-03-24T00:27:47.010Z,36.25
2018-03-24T00:30:14.514Z,39.47
2018-03-24T00:32:42.772Z,35.30
2018-03-24T00:35:10.263Z,35.13
2018-03-24T00:37:38.532Z,32.80
2018-03-24T00:40:06.787Z,32.53
2018-03-24T00:42:34.320Z,35.97
2018-03-24T00:45:03.064Z,33.05
2018-03-24T00:47:33.302Z,31.40
2018-03-24T00:50:00.797Z,38.45
2018-03-24T00:52:28.311Z,33.45
2018-03-24T00:54:56.556Z,36.35
2018-03-24T00:57:24.080Z,36.70
2018-03-24T00:59:51.580Z,35.83
2018-03-24T01:02:19.089Z,30.85
2018-03-24T01:04:46.582Z,31.87
2018-03-24T01:07:14.089Z,33.80
2018-03-24T01:09:42.341Z,31.02
2018-03-24T01:12:09.847Z,33.25
2018-03-24T01:14:37.336Z,31.70
2018-03-24T01:17:04.843Z,29.42
2018-03-24T01:19:33.124Z,33.45
2018-03-24T01:22:00.628Z,30.90
2018-03-24T01:24:28.128Z,36.67
2018-03-24T01:26:56.404Z,32.92
2018-03-24T01:29:24.698Z,31.02
2018-03-24T01:31:52.234Z,32.85
2018-03-24T01:34:20.519Z,32.38
2018-03-24T01:36:48.783Z,31.17
2018-03-24T01:39:16.287Z,29.55
2018-03-24T01:41:43.776Z,30.37
2018-03-24T01:44:11.289Z,28.90
2018-03-24T01:46:38.780Z,29.55
2018-03-24T01:49:06.287Z,31.90
2018-03-24T01:51:34.548Z,25.50
2018-03-24T01:54:02.052Z,31.62
2018-03-24T01:56:29.543Z,30.75
2018-03-24T01:58:57.048Z,28.08
2018-03-24T02:01:24.545Z,30.23
2018-03-24T02:03:52.044Z,37.17
2018-03-24T02:06:19.555Z,37.22
2018-03-24T02:08:47.036Z,35.15
2018-03-24T02:11:14.530Z,36.80
2018-03-24T02:13:43.637Z,34.85
2018-03-24T02:16:11.896Z,28.77
2018-03-24T02:18:39.452Z,29.00
2018-03-24T02:24:08.791Z,31.52
2018-03-24T02:26:37.039Z,34.40
2018-03-24T02:29:04.550Z,29.45
2018-03-24T02:31:32.044Z,27.98
2018-03-24T02:33:59.542Z,33.33
2018-03-24T02:36:27.804Z,31.50
2018-03-24T02:38:55.307Z,32.53
2018-03-24T02:41:22.789Z,31.08
2018-03-24T02:43:50.298Z,29.23
2018-03-24T02:46:18.552Z,31.05
2018-03-24T02:48:46.065Z,31.42
2018-03-24T02:51:13.649Z,31.20
2018-03-24T02:53:41.272Z,30.67
2018-03-24T02:56:09.525Z,31.17
2018-03-24T02:58:37.018Z,32.55
2018-03-24T03:01:04.505Z,29.60
2018-03-24T03:03:32.000Z,32.92
2018-03-24T03:05:59.561Z,34.15
2018-03-24T03:08:28.572Z,30.05
2018-03-24T03:10:56.820Z,32.35
2018-03-24T03:13:24.320Z,28.40
2018-03-24T03:15:51.805Z,33.85
2018-03-24T03:18:19.316Z,27.17
2018-03-24T03:20:48.349Z,34.70
2018-03-24T03:23:15.851Z,34.90
2018-03-24T03:25:44.108Z,37.65
2018-03-24T03:28:11.603Z,31.20
2018-03-24T03:30:43.733Z,32.22
2018-03-24T03:33:11.241Z,31.92
2018-03-24T03:35:39.498Z,32.22
2018-03-24T03:38:08.051Z,33.50
2018-03-24T03:40:35.544Z,32.45
2018-03-24T03:43:03.040Z,34.53
2018-03-24T03:45:30.533Z,33.97
2018-03-24T03:47:58.053Z,32.65
2018-03-24T03:50:25.564Z,30.92
2018-03-24T03:52:53.060Z,38.05
2018-03-24T03:55:21.308Z,31.42
2018-03-24T03:57:48.803Z,32.88
2018-03-24T04:00:17.064Z,33.47
2018-03-24T04:02:45.329Z,33.85
2018-03-24T04:05:12.816Z,34.42
2018-03-24T04:07:40.315Z,36.10
2018-03-24T04:10:07.818Z,42.62
2018-03-24T04:12:36.127Z,46.30
2018-03-24T04:15:03.617Z,82.18
2018-03-24T04:17:31.116Z,76.40
2018-03-24T04:19:59.372Z,70.82
2018-03-24T04:22:26.856Z,72.72
2018-03-24T04:24:55.124Z,62.33
2018-03-24T04:27:23.375Z,55.55
2018-03-24T04:29:50.876Z,70.30
2018-03-24T04:32:19.118Z,45.67
2018-03-24T04:34:46.623Z,44.05
2018-03-24T04:37:14.104Z,29.98
2018-03-24T04:39:41.599Z,32.85
2018-03-24T04:42:10.595Z,36.45
2018-03-24T04:44:38.101Z,35.60
2018-03-24T04:47:05.589Z,46.75
2018-03-24T04:49:33.075Z,30.52
2018-03-24T04:52:00.562Z,28.23
2018-03-24T04:54:28.064Z,26.05
2018-03-24T04:56:55.543Z,46.42
2018-03-24T04:59:23.034Z,23.20
2018-03-24T05:01:50.523Z,29.42
2018-03-24T05:04:18.021Z,28.25
2018-03-24T05:06:45.508Z,31.25
2018-03-24T05:09:13.807Z,32.60
2018-03-24T05:11:41.297Z,22.30
2018-03-24T05:14:08.893Z,38.08
2018-03-24T05:16:36.367Z,33.78
2018-03-24T05:19:04.628Z,25.27
2018-03-24T05:21:32.889Z,27.30
2018-03-24T05:24:00.379Z,44.78
2018-03-24T05:26:28.636Z,38.15
2018-03-24T05:28:56.164Z,35.10
2018-03-24T05:31:23.655Z,33.72
2018-03-24T05:33:51.916Z,39.42
2018-03-24T05:36:19.414Z,54.28
2018-03-24T05:38:46.911Z,32.78
2018-03-24T05:41:14.386Z,42.42
2018-03-24T05:43:41.886Z,39.92
2018-03-24T05:46:10.149Z,45.08
2018-03-24T05:48:37.685Z,37.55
2018-03-24T05:51:05.200Z,43.15
2018-03-24T05:53:33.468Z,30.23
2018-03-24T05:56:00.959Z,49.78
2018-03-24T05:58:28.455Z,46.17
2018-03-24T06:00:55.939Z,43.72
2018-03-24T06:03:24.205Z,44.03
2018-03-24T06:05:52.466Z,60.75
2018-03-24T06:08:19.967Z,53.25
2018-03-24T06:10:47.456Z,54.05
2018-03-24T06:13:14.956Z,42.47
2018-03-24T06:15:43.208Z,40.45
2018-03-24T06:18:10.726Z,42.30
2018-03-24T06:20:38.271Z,68.82
2018-03-24T06:23:05.847Z,46.95
2018-03-24T06:25:33.340Z,48.65
2018-03-24T06:28:00.872Z,33.85
2018-03-24T06:30:30.819Z,36.08
2018-03-24T06:32:58.315Z,43.40
2018-03-24T06:35:26.579Z,40.95
2018-03-24T06:37:54.826Z,39.65
2018-03-24T06:40:22.354Z,41.88
2018-03-24T06:42:49.825Z,33.42
2018-03-24T06:45:17.333Z,41.35
2018-03-24T06:47:45.571Z,37.42
2018-03-24T06:50:13.067Z,41.63
2018-03-24T06:52:41.315Z,33.63
2018-03-24T06:55:08.829Z,36.95
2018-03-24T06:57:36.309Z,37.95
2018-03-24T07:00:03.916Z,40.25
2018-03-24T07:02:31.428Z,42.22
2018-03-24T07:04:58.927Z,41.08
2018-03-24T07:07:26.413Z,42.30
2018-03-24T07:09:54.713Z,45.08
2018-03-24T07:12:22.204Z,49.33
2018-03-24T07:14:49.716Z,45.17
2018-03-24T07:17:17.204Z,47.30
2018-03-24T07:19:44.727Z,46.13
2018-03-24T07:22:12.979Z,50.05
2018-03-24T07:24:40.499Z,49.70
2018-03-24T07:27:07.983Z,47.80
2018-03-24T07:29:35.499Z,47.60
2018-03-24T07:32:03.002Z,49.97
2018-03-24T07:34:30.499Z,47.25
2018-03-24T07:36:58.016Z,46.17
2018-03-24T07:39:25.557Z,43.85
2018-03-24T07:41:53.038Z,45.72
2018-03-24T07:44:20.578Z,46.80
2018-03-24T07:46:48.096Z,47.55
2018-03-24T07:49:16.371Z,44.83
2018-03-24T07:51:43.859Z,45.83
2018-03-24T07:54:11.364Z,43.20
2018-03-24T07:56:38.847Z,42.53
2018-03-24T07:59:06.349Z,47.65
2018-03-24T08:01:33.843Z,37.88
2018-03-24T08:04:01.396Z,40.25
2018-03-24T08:06:28.900Z,42.50
2018-03-24T08:08:56.476Z,37.13
2018-03-24T08:11:24.045Z,38.95
2018-03-24T08:13:51.535Z,36.85
2018-03-24T08:16:19.063Z,36.90
2018-03-24T08:18:46.586Z,40.42
2018-03-24T08:21:14.899Z,37.40
2018-03-24T08:23:42.414Z,35.88
2018-03-24T08:26:10.775Z,36.88
2018-03-24T08:28:38.348Z,34.10
2018-03-24T08:31:05.961Z,33.15
2018-03-24T08:33:33.500Z,35.75
2018-03-24T08:36:01.080Z,34.83
2018-03-24T08:38:28.644Z,35.03
2018-03-24T08:40:56.245Z,36.03
2018-03-24T08:43:23.708Z,33.30
2018-03-24T08:45:51.193Z,30.47
2018-03-24T08:48:18.684Z,33.45
2018-03-24T08:50:46.188Z,33.58
2018-03-24T08:53:15.540Z,33.00
2018-03-24T08:55:43.203Z,30.00
2018-03-24T08:58:10.663Z,29.90
2018-03-24T09:00:38.133Z,28.60
2018-03-24T09:03:05.611Z,28.87
2018-03-24T09:05:33.200Z,29.90
2018-03-24T09:08:01.575Z,28.10
2018-03-24T09:10:29.043Z,27.70
2018-03-24T09:12:56.533Z,26.30
2018-03-24T09:16:44.291Z,25.37
2018-03-24T09:19:11.775Z,29.77
2018-03-24T09:21:39.235Z,26.67
2018-03-24T09:24:06.715Z,26.33
2018-03-24T09:26:34.251Z,27.83
2018-03-24T09:29:01.836Z,27.60
2018-03-24T09:31:29.288Z,28.47
2018-03-24T09:33:56.816Z,26.80
2018-03-24T09:36:24.307Z,26.53
2018-03-24T09:38:51.802Z,26.13
2018-03-24T09:41:19.263Z,25.90
2018-03-24T09:43:46.742Z,27.07
2018-03-24T09:46:14.224Z,26.93
2018-03-24T09:48:41.684Z,25.30
2018-03-24T09:51:09.155Z,23.13
2018-03-24T09:53:36.843Z,22.57
2018-03-24T09:56:05.087Z,24.27
2018-03-24T09:58:32.554Z,22.47
2018-03-24T10:01:00.041Z,21.23
2018-03-24T10:03:27.576Z,21.80
2018-03-24T10:05:55.046Z,20.33
2018-03-24T10:08:23.280Z,20.53
2018-03-24T10:10:50.771Z,21.63
2018-03-24T10:13:18.244Z,21.53
2018-03-24T10:15:46.490Z,20.83
2018-03-24T10:18:13.946Z,20.30
2018-03-24T10:23:44.229Z,21.13
2018-03-24T10:26:11.729Z,20.67
2018-03-24T10:28:39.200Z,20.47
2018-03-24T10:31:06.721Z,20.30
2018-03-24T10:33:34.196Z,18.97
2018-03-24T10:36:01.673Z,17.20
2018-03-24T10:38:29.203Z,18.83
2018-03-24T10:40:57.286Z,18.63
2018-03-24T10:43:44.569Z,18.70
2018-03-24T10:46:12.831Z,19.37
2018-03-24T10:48:40.367Z,18.57
2018-03-24T10:51:07.851Z,19.03
2018-03-24T10:53:35.317Z,17.97
2018-03-24T10:56:02.800Z,18.40
2018-03-24T10:58:31.063Z,16.73
2018-03-24T11:01:03.188Z,16.37
2018-03-24T11:03:30.727Z,17.97
2018-03-24T11:05:59.032Z,18.03
2018-03-24T11:08:26.497Z,16.73
2018-03-24T11:10:53.963Z,17.23
2018-03-24T11:13:21.426Z,17.07
2018-03-24T11:15:48.984Z,17.60
2018-03-24T11:18:16.448Z,15.33
2018-03-24T11:20:43.920Z,16.77
2018-03-24T11:23:12.160Z,14.50
2018-03-24T11:25:39.656Z,15.30
2018-03-24T11:28:07.119Z,16.73
2018-03-24T11:30:35.355Z,12.80
2018-03-24T11:33:02.877Z,14.50
2018-03-24T11:35:31.963Z,13.17
2018-03-24T11:37:59.425Z,12.27
2018-03-24T11:40:28.279Z,11.97
2018-03-24T11:42:56.379Z,15.43
2018-03-24T11:45:24.627Z,14.60
2018-03-24T11:47:53.633Z,15.10
2018-03-24T11:50:21.093Z,16.50
2018-03-24T11:52:49.328Z,15.30
2018-03-24T11:55:16.791Z,11.77
2018-03-24T11:57:44.413Z,10.13
2018-03-24T12:00:12.736Z,13.33
2018-03-24T12:02:40.200Z,15.57
2018-03-24T12:05:07.663Z,14.53
2018-03-24T12:07:35.144Z,13.93
2018-03-24T12:10:03.380Z,14.10
2018-03-24T12:12:30.839Z,14.23
2018-03-24T12:14:58.308Z,13.03
2018-03-24T12:17:25.787Z,14.47
2018-03-24T12:19:53.267Z,15.70
2018-03-24T12:22:21.515Z,14.83
2018-03-24T12:24:48.987Z,14.53
2018-03-24T12:27:17.282Z,14.07
2018-03-24T12:29:44.799Z,12.67
2018-03-24T12:32:12.295Z,12.87
2018-03-24T12:34:40.520Z,11.57
2018-03-24T12:37:08.104Z,14.70
2018-03-24T12:39:35.560Z,15.37
2018-03-24T12:42:03.035Z,14.30
2018-03-24T12:44:30.513Z,13.80
2018-03-24T12:46:58.000Z,13.17
2018-03-24T12:49:25.459Z,12.03
2018-03-24T12:51:52.942Z,13.60
2018-03-24T12:54:20.418Z,13.47
2018-03-24T12:56:47.904Z,12.30
2018-03-24T12:59:16.131Z,10.53
2018-03-24T13:01:43.631Z,9.90
2018-03-24T13:04:11.875Z,11.57
2018-03-24T13:06:42.148Z,13.10
2018-03-24T13:09:09.708Z,12.60
2018-03-24T13:11:38.183Z,13.13
2018-03-24T13:14:05.645Z,12.97
2018-03-24T13:16:33.111Z,13.03
2018-03-24T13:19:00.594Z,12.83
2018-03-24T13:21:28.062Z,11.70
2018-03-24T13:23:55.534Z,9.70
2018-03-24T13:26:23.007Z,12.40
2018-03-24T13:28:50.479Z,13.50
2018-03-24T13:31:18.774Z,11.50
2018-03-24T13:33:46.276Z,16.20
2018-03-24T13:36:13.779Z,9.67
2018-03-24T13:38:41.244Z,11.23
2018-03-24T13:41:09.627Z,9.47
2018-03-24T13:43:37.850Z,11.80
2018-03-24T13:46:06.380Z,12.10
2018-03-24T13:48:33.852Z,10.73
2018-03-24T13:51:01.403Z,12.93
2018-03-24T13:53:29.826Z,12.23
2018-03-24T13:55:57.296Z,11.10
2018-03-24T13:58:24.854Z,9.83
2018-03-24T14:00:52.325Z,9.73
2018-03-24T14:03:19.974Z,11.37
2018-03-24T14:05:47.442Z,9.00
2018-03-24T14:08:14.915Z,9.17
2018-03-24T14:10:42.391Z,9.40
2018-03-24T14:13:10.734Z,9.30
2018-03-24T14:15:40.012Z,8.90
2018-03-24T14:18:07.488Z,9.10
2018-03-24T14:20:34.955Z,9.00
2018-03-24T14:23:02.484Z,7.47
2018-03-24T14:25:30.033Z,9.90
2018-03-24T14:27:57.504Z,9.37
2018-03-24T14:30:24.967Z,7.03
2018-03-24T14:32:52.436Z,9.23
2018-03-24T14:35:20.429Z,7.17
2018-03-24T14:37:47.946Z,7.70
2018-03-24T14:40:15.351Z,8.43
2018-03-24T14:42:43.918Z,9.50
2018-03-24T14:45:11.383Z,8.40
2018-03-24T14:47:39.885Z,8.27
2018-03-24T14:50:07.343Z,8.60
2018-03-24T14:52:35.619Z,8.80
2018-03-24T14:55:03.092Z,8.33
2018-03-24T14:57:31.347Z,8.70
2018-03-24T14:59:58.829Z,8.80
2018-03-24T15:02:27.061Z,9.17
2018-03-24T15:04:54.541Z,8.93
2018-03-24T15:07:22.006Z,7.77
2018-03-24T15:09:50.399Z,6.17
2018-03-24T15:12:17.956Z,7.27
2018-03-24T15:14:46.939Z,8.10
2018-03-24T15:17:14.472Z,8.30
2018-03-24T15:19:41.922Z,7.30
2018-03-24T15:22:09.454Z,7.70
2018-03-24T15:24:36.924Z,7.03
2018-03-24T15:27:04.395Z,6.70
2018-03-24T15:29:43.648Z,6.93
2018-03-24T15:32:23.187Z,6.67
2018-03-24T15:35:02.677Z,7.70
2018-03-24T15:37:30.987Z,5.83
2018-03-24T15:39:58.480Z,8.50
2018-03-24T15:42:25.944Z,8.40
2018-03-24T15:44:54.234Z,9.47
2018-03-24T15:47:22.490Z,8.40
2018-03-24T15:49:50.044Z,8.40
2018-03-24T15:52:18.567Z,8.30
2018-03-24T15:54:46.019Z,8.47
2018-03-24T15:57:13.493Z,8.87
2018-03-24T15:59:41.099Z,8.63
2018-03-24T16:02:08.616Z,9.80
2018-03-24T16:04:36.102Z,8.43
2018-03-24T16:07:03.574Z,9.03
2018-03-24T16:09:31.084Z,9.40
2018-03-24T16:11:59.324Z,10.80
2018-03-24T16:14:26.825Z,9.60
2018-03-24T16:16:54.312Z,9.23
2018-03-24T16:19:21.782Z,9.90
2018-03-24T16:21:49.251Z,8.87
2018-03-24T16:24:16.835Z,7.73
2018-03-24T16:26:45.074Z,9.27
2018-03-24T16:29:12.584Z,9.40
2018-03-24T16:31:40.143Z,10.63
2018-03-24T16:34:07.628Z,9.47
2018-03-24T16:36:35.086Z,7.53
2018-03-24T16:39:02.559Z,8.73
2018-03-24T16:41:30.062Z,9.60
2018-03-24T16:43:57.614Z,9.70
2018-03-24T16:46:26.102Z,8.73
2018-03-24T16:48:54.390Z,9.70
2018-03-24T16:51:22.721Z,8.17
2018-03-24T16:53:50.352Z,8.23
2018-03-24T16:56:17.885Z,8.90
2018-03-24T16:58:46.107Z,8.77
2018-03-24T17:01:13.563Z,11.70
2018-03-24T17:03:41.417Z,10.50
2018-03-24T17:06:08.867Z,10.50
2018-03-24T17:08:36.340Z,11.07
2018-03-24T17:11:03.782Z,9.90
2018-03-24T17:13:31.477Z,9.73
2018-03-24T17:15:58.999Z,11.40
2018-03-24T17:18:26.468Z,10.30
2018-03-24T17:20:53.918Z,8.90
2018-03-24T17:23:21.543Z,8.80
2018-03-24T17:25:49.035Z,9.93
2018-03-24T17:28:16.520Z,10.10
2018-03-24T17:30:43.983Z,8.97
2018-03-24T17:33:11.836Z,9.00
2018-03-24T17:35:39.223Z,8.83
2018-03-24T17:38:06.698Z,11.90
2018-03-24T17:40:34.168Z,12.10
2018-03-24T17:43:02.442Z,9.23
2018-03-24T17:45:29.908Z,11.83
2018-03-24T17:47:58.140Z,8.93
2018-03-24T17:50:25.606Z,10.63
2018-03-24T17:52:53.068Z,14.53
2018-03-24T17:55:20.554Z,27.43
2018-03-24T17:57:48.822Z,18.03
2018-03-24T18:00:16.294Z,18.37
2018-03-24T18:02:44.538Z,14.30
2018-03-24T18:05:12.160Z,12.73
2018-03-24T18:07:39.648Z,9.80
2018-03-24T18:10:07.162Z,12.30
2018-03-24T18:12:35.368Z,13.30
2018-03-24T18:15:02.877Z,12.10
2018-03-24T18:17:30.367Z,12.03
2018-03-24T18:19:57.824Z,11.93
2018-03-24T18:22:25.372Z,11.27
2018-03-24T18:24:52.919Z,11.03
2018-03-24T18:27:21.153Z,11.63
2018-03-24T18:29:48.634Z,11.87
2018-03-24T18:32:16.124Z,13.77
2018-03-24T18:34:44.365Z,11.97
2018-03-24T18:37:12.088Z,13.17
2018-03-24T18:39:39.732Z,14.50
2018-03-24T18:42:07.343Z,12.97
2018-03-24T18:44:34.815Z,10.87
2018-03-24T18:47:02.295Z,12.43
2018-03-24T18:49:30.578Z,12.67
2018-03-24T18:51:58.058Z,12.10
2018-03-24T18:54:25.537Z,13.27
2018-03-24T18:56:53.183Z,11.53
2018-03-24T18:59:20.652Z,12.67
2018-03-24T19:01:48.112Z,13.97
2018-03-24T19:04:15.606Z,14.03
2018-03-24T19:06:43.064Z,12.27
2018-03-24T19:09:11.287Z,14.47
2018-03-24T19:11:38.768Z,15.43
2018-03-24T19:14:06.335Z,15.37
2018-03-24T19:16:33.881Z,15.93
2018-03-24T19:19:01.344Z,15.43
2018-03-24T19:21:28.825Z,14.70
2018-03-24T19:23:56.388Z,19.43
2018-03-24T19:26:23.945Z,18.47
2018-03-24T19:28:52.315Z,24.67
2018-03-24T19:31:19.796Z,31.17
2018-03-24T19:33:48.767Z,29.80
2018-03-24T19:36:16.246Z,26.60
2018-03-24T19:38:45.242Z,25.90
2018-03-24T19:41:12.725Z,26.80
2018-03-24T19:43:40.327Z,21.90
2018-03-24T19:46:08.848Z,22.33
2018-03-24T19:48:36.326Z,25.20
2018-03-24T19:51:03.858Z,22.70
2018-03-24T19:53:31.463Z,23.30
2018-03-24T19:55:58.956Z,25.10
2018-03-24T19:58:26.483Z,24.63
2018-03-24T20:00:53.958Z,27.67
2018-03-24T20:03:21.459Z,28.27
2018-03-24T20:05:48.981Z,30.07
2018-03-24T20:08:16.452Z,24.20
2018-03-24T20:10:43.978Z,22.70
2018-03-24T20:13:12.266Z,19.73
2018-03-24T20:15:39.808Z,18.57
2018-03-24T20:18:08.060Z,18.70
2018-03-24T20:20:35.515Z,20.53
2018-03-24T20:23:03.015Z,17.77
2018-03-24T20:25:30.484Z,17.63
2018-03-24T20:27:57.972Z,17.50
2018-03-24T20:30:25.431Z,17.57
2018-03-24T20:32:52.908Z,16.77
2018-03-24T20:35:20.383Z,20.37
2018-03-24T20:37:48.677Z,20.07
2018-03-24T20:40:17.017Z,21.67
2018-03-24T20:42:44.567Z,18.93
2018-03-24T20:45:12.049Z,17.80
2018-03-24T20:47:39.552Z,17.33
2018-03-24T20:50:06.980Z,17.00
2018-03-24T20:52:35.444Z,17.93
2018-03-24T20:55:03.708Z,19.00
2018-03-24T20:57:31.195Z,17.37
2018-03-24T20:59:59.432Z,17.43
2018-03-24T21:02:26.983Z,19.40
2018-03-24T21:04:54.447Z,17.27
2018-03-24T21:07:21.955Z,17.23
2018-03-24T21:09:50.195Z,16.43
2018-03-24T21:12:17.736Z,16.20
2018-03-24T21:14:45.208Z,17.53
2018-03-24T21:17:12.667Z,17.97
2018-03-24T21:19:40.148Z,19.13
2018-03-24T21:22:07.622Z,19.90
2018-03-24T21:24:35.873Z,19.07
2018-03-24T21:27:03.368Z,19.83
2018-03-24T21:29:30.847Z,19.40
2018-03-24T21:31:58.308Z,19.03
2018-03-24T21:34:25.788Z,16.20
2018-03-24T21:36:53.280Z,18.90
2018-03-24T21:39:20.764Z,19.37
2018-03-24T21:41:48.243Z,18.70
2018-03-24T21:44:15.713Z,15.30
2018-03-24T21:46:43.244Z,16.80
2018-03-24T21:49:10.708Z,16.97
2018-03-24T21:51:38.243Z,19.43
2018-03-24T21:54:06.489Z,15.93
2018-03-24T21:56:33.998Z,16.92
2018-03-24T21:59:01.451Z,15.57
2018-03-24T22:01:28.952Z,19.17
2018-03-24T22:03:56.524Z,17.40
2018-03-24T22:06:24.075Z,14.90
2018-03-24T22:08:51.528Z,18.67
2018-03-24T22:11:19.038Z,15.52
2018-03-24T22:13:46.533Z,18.50
2018-03-24T22:16:14.179Z,17.10
2018-03-24T22:18:41.644Z,19.10
2018-03-24T22:21:09.139Z,17.20
2018-03-24T22:23:36.636Z,18.07
2018-03-24T22:26:04.891Z,17.50
2018-03-24T22:28:32.352Z,16.03
2018-03-24T22:30:59.835Z,16.27
2018-03-24T22:33:27.331Z,18.57
2018-03-24T22:35:54.831Z,16.17
2018-03-24T22:38:22.320Z,18.27
2018-03-24T22:40:49.797Z,19.13
2018-03-24T22:43:17.283Z,18.37
2018-03-24T22:45:44.763Z,18.13
2018-03-24T22:48:13.024Z,18.20
2018-03-24T22:50:40.513Z,18.67
2018-03-24T22:53:08.761Z,18.50
2018-03-24T22:55:37.037Z,18.02
2018-03-24T22:58:04.529Z,18.10
2018-03-24T23:00:32.091Z,18.23
2018-03-24T23:03:00.372Z,17.57
2018-03-24T23:05:27.952Z,18.27
2018-03-24T23:07:55.440Z,17.90
2018-03-24T23:10:22.966Z,19.98
2018-03-24T23:12:50.461Z,18.45
2018-03-24T23:15:17.972Z,17.77
2018-03-24T23:17:45.439Z,18.67
2018-03-24T23:20:12.948Z,16.87
2018-03-24T23:22:41.216Z,17.20
2018-03-24T23:25:09.542Z,19.40
2018-03-24T23:27:37.761Z,15.48
2018-03-24T23:30:06.427Z,19.35
2018-03-24T23:32:33.917Z,19.10
2018-03-24T23:35:01.494Z,20.45
2018-03-24T23:37:29.035Z,19.52
2018-03-24T23:40:13.917Z,20.98
2018-03-24T23:42:42.175Z,23.38
2018-03-24T23:45:09.709Z,23.45
2018-03-24T23:47:37.236Z,20.10
2018-03-24T23:50:04.735Z,22.90
2018-03-24T23:52:32.245Z,21.45
2018-03-24T23:54:59.725Z,19.27
2018-03-24T23:57:27.340Z,18.40
2018-03-24T23:59:54.839Z,17.37
